Time;durP1;ratioP1;P1;durP2;ratioP2;P2;SDS_P1;SDS_P2;PMS_P1;PMS_P2;Temp;Humidity;BMP_temperature;BMP_pressure;BME280_temperature;BME280_humidity;BME280_pressure;Samples;Min_cycle;Max_cycle;Signal;HPM_P1;HPM_P2
2023/01/10 00:02:09;;;;;;;3.40;2.10;;;7.40;99.90;;;;;;5096062;28;20326;-78
2023/01/10 00:04:54;;;;;;;3.15;2.10;;;7.40;99.90;;;;;;5097740;28;20429;-78
2023/01/10 00:07:40;;;;;;;5.33;2.20;;;7.40;99.90;;;;;;5089380;28;20775;-79
2023/01/10 00:10:26;;;;;;;4.67;2.50;;;7.60;99.90;;;;;;5095027;28;20545;-78
2023/01/10 00:13:23;;;;;;;7.45;2.63;;;7.60;99.90;;;;;;5098203;28;20542;-77
2023/01/10 00:16:09;;;;;;;6.47;2.70;;;7.70;99.90;;;;;;5092052;28;20214;-77
2023/01/10 00:18:56;;;;;;;8.10;2.33;;;7.80;99.90;;;;;;5093721;28;20458;-78
2023/01/10 00:21:41;;;;;;;6.83;2.40;;;7.80;99.90;;;;;;5095794;28;20441;-77
2023/01/10 00:24:27;;;;;;;3.50;2.53;;;7.80;99.90;;;;;;5096382;28;20969;-79
2023/01/10 00:27:15;;;;;;;8.25;2.75;;;7.70;99.90;;;;;;5091459;28;20448;-79
2023/01/10 00:30:12;;;;;;;3.42;2.50;;;7.70;99.90;;;;;;5091082;28;20493;-79
2023/01/10 00:32:58;;;;;;;5.60;3.25;;;7.50;99.90;;;;;;5094937;28;20304;-77
2023/01/10 00:35:45;;;;;;;6.97;2.43;;;7.60;99.90;;;;;;5092545;28;20824;-77
2023/01/10 00:38:31;;;;;;;6.75;2.38;;;7.60;99.90;;;;;;5091889;28;20496;-78
2023/01/10 00:44:17;;;;;;;3.63;2.20;;;7.60;99.90;;;;;;5098285;28;20467;-78
2023/01/10 00:47:02;;;;;;;5.20;2.90;;;7.60;99.90;;;;;;5087939;28;20441;-78
2023/01/10 00:49:48;;;;;;;6.03;2.40;;;7.50;99.90;;;;;;5091453;28;21726;-78
2023/01/10 00:52:35;;;;;;;3.43;2.60;;;7.50;99.90;;;;;;5093422;28;20476;-77
2023/01/10 00:55:21;;;;;;;3.43;2.00;;;7.40;99.90;;;;;;5091781;28;20967;-77
2023/01/10 00:58:07;;;;;;;5.13;2.40;;;7.40;99.90;;;;;;5090849;28;20446;-78
2023/01/10 01:00:52;;;;;;;3.88;2.30;;;7.50;99.90;;;;;;5093868;28;20510;-78
2023/01/10 01:03:38;;;;;;;4.33;2.30;;;7.50;99.90;;;;;;5088750;28;20301;-78
2023/01/10 01:06:24;;;;;;;5.40;2.10;;;7.50;99.90;;;;;;5093717;28;20441;-78
2023/01/10 01:09:11;;;;;;;3.42;1.90;;;7.60;99.90;;;;;;5090284;28;20460;-77
2023/01/10 01:11:56;;;;;;;4.00;2.55;;;7.60;99.90;;;;;;5087501;28;20218;-79
2023/01/10 01:14:42;;;;;;;3.00;2.27;;;7.70;99.90;;;;;;5089649;28;20301;-78
2023/01/10 01:17:28;;;;;;;2.50;1.80;;;7.60;99.90;;;;;;5087682;28;20443;-78
2023/01/10 01:20:14;;;;;;;4.20;1.98;;;7.70;99.90;;;;;;5092747;28;20723;-77
2023/01/10 01:23:00;;;;;;;2.78;1.80;;;7.50;99.90;;;;;;5094569;28;20219;-79
2023/01/10 01:25:50;;;;;;;2.03;1.60;;;7.40;99.90;;;;;;5089583;28;20327;-78
2023/01/10 01:28:36;;;;;;;3.83;1.65;;;7.40;99.90;;;;;;5098469;28;20435;-77
2023/01/10 01:31:22;;;;;;;3.20;1.77;;;7.30;99.90;;;;;;5092203;28;20747;-77
2023/01/10 01:34:07;;;;;;;2.15;1.25;;;7.20;99.90;;;;;;5091213;28;20787;-78
2023/01/10 01:36:55;;;;;;;2.30;1.50;;;7.20;99.90;;;;;;5083587;28;20230;-79
2023/01/10 01:39:41;;;;;;;2.10;1.20;;;7.00;99.90;;;;;;5090600;28;20496;-78
2023/01/10 01:42:30;;;;;;;1.80;1.02;;;7.00;99.90;;;;;;5093128;28;20296;-77
2023/01/10 01:45:33;;;;;;;1.67;1.10;;;7.00;99.90;;;;;;5087805;28;20208;-77
2023/01/10 01:48:28;;;;;;;3.42;0.90;;;7.00;99.90;;;;;;5090493;28;20448;-79
2023/01/10 01:51:17;;;;;;;1.40;0.90;;;6.90;99.90;;;;;;5089021;28;20319;-79
2023/01/10 01:54:07;;;;;;;1.50;0.90;;;6.90;99.90;;;;;;5089900;28;20227;-77
2023/01/10 01:56:57;;;;;;;2.22;1.27;;;6.90;99.90;;;;;;5085373;28;20202;-77
2023/01/10 01:59:48;;;;;;;2.00;1.20;;;6.90;99.90;;;;;;5093370;28;20203;-78
2023/01/10 02:02:39;;;;;;;1.58;1.00;;;6.90;99.90;;;;;;5092599;28;20219;-78
2023/01/10 02:05:26;;;;;;;1.63;0.90;;;7.00;99.90;;;;;;5085616;28;20212;-78
2023/01/10 02:08:13;;;;;;;2.58;0.95;;;6.90;99.90;;;;;;5092613;28;20199;-76
2023/01/10 02:11:07;;;;;;;1.50;0.90;;;7.00;99.90;;;;;;5090272;28;20735;-78
2023/01/10 02:13:54;;;;;;;2.08;1.17;;;6.90;99.90;;;;;;5091673;28;20227;-79
2023/01/10 02:16:41;;;;;;;3.13;0.97;;;6.90;99.90;;;;;;5087014;28;20454;-77
2023/01/10 02:19:36;;;;;;;3.15;1.13;;;7.00;99.90;;;;;;5093020;28;20801;-78
2023/01/10 02:23:01;;;;;;;2.38;1.00;;;7.00;99.90;;;;;;5092335;28;20219;-78
2023/01/10 02:26:23;;;;;;;5.73;1.00;;;7.00;99.90;;;;;;5090309;28;20204;-79
2023/01/10 02:29:39;;;;;;;2.27;0.87;;;7.10;99.90;;;;;;5100890;28;20492;-79
2023/01/10 02:32:35;;;;;;;1.93;1.13;;;7.20;99.90;;;;;;5092671;28;20485;-79
2023/01/10 02:35:34;;;;;;;3.40;0.90;;;7.20;99.90;;;;;;5092149;28;20447;-79
2023/01/10 02:38:28;;;;;;;1.83;1.10;;;7.10;99.90;;;;;;5093638;28;20563;-78
2023/01/10 02:41:20;;;;;;;3.43;1.13;;;7.20;99.90;;;;;;5099507;28;20582;-77
2023/01/10 02:44:12;;;;;;;2.70;0.95;;;7.10;99.90;;;;;;5094967;28;20489;-76
2023/01/10 02:46:57;;;;;;;2.85;1.15;;;7.20;99.90;;;;;;5095390;28;20250;-79
2023/01/10 02:49:47;;;;;;;3.42;1.17;;;7.10;99.90;;;;;;5092561;28;20211;-79
2023/01/10 02:52:33;;;;;;;4.20;1.27;;;7.10;99.90;;;;;;5095467;28;20518;-79
2023/01/10 02:55:20;;;;;;;3.05;1.10;;;7.10;99.90;;;;;;5089617;28;20298;-78
2023/01/10 02:58:18;;;;;;;2.30;1.05;;;6.90;99.90;;;;;;5090881;28;20345;-79
2023/01/10 03:01:14;;;;;;;2.93;1.17;;;6.90;99.90;;;;;;5095082;28;20207;-79
2023/01/10 03:04:09;;;;;;;4.20;1.20;;;6.90;99.90;;;;;;5090608;28;20977;-79
2023/01/10 03:07:02;;;;;;;4.35;1.75;;;7.10;99.90;;;;;;5093221;28;20793;-79
2023/01/10 03:09:55;;;;;;;1.63;1.23;;;7.10;99.90;;;;;;5094780;28;20206;-79
2023/01/10 03:12:47;;;;;;;5.40;1.50;;;7.10;99.90;;;;;;5095226;28;20455;-79
2023/01/10 03:15:36;;;;;;;4.33;1.27;;;7.20;99.90;;;;;;5087474;28;20199;-79
2023/01/10 03:18:27;;;;;;;4.68;1.45;;;7.20;99.90;;;;;;5093314;28;20457;-78
2023/01/10 03:21:13;;;;;;;2.60;1.30;;;7.20;99.90;;;;;;5095183;28;20405;-78
2023/01/10 03:24:05;;;;;;;2.03;1.05;;;7.00;99.90;;;;;;5094535;28;20727;-79
2023/01/10 03:26:57;;;;;;;6.30;1.23;;;6.80;99.90;;;;;;5092601;28;20204;-79
2023/01/10 03:29:50;;;;;;;2.60;1.13;;;6.80;99.90;;;;;;5094725;28;20812;-79
2023/01/10 03:32:36;;;;;;;4.37;1.13;;;6.90;99.90;;;;;;5093680;28;20477;-78
2023/01/10 03:35:29;;;;;;;3.50;1.07;;;6.90;99.90;;;;;;5088559;28;20449;-78
2023/01/10 03:38:24;;;;;;;3.13;1.00;;;6.80;99.90;;;;;;5094703;28;20519;-77
2023/01/10 03:41:16;;;;;;;3.25;1.30;;;6.70;99.90;;;;;;5095586;28;20208;-78
2023/01/10 03:47:23;;;;;;;6.32;1.00;;;6.70;99.90;;;;;;5095408;28;20340;-78
2023/01/10 03:50:12;;;;;;;7.10;1.20;;;6.70;99.90;;;;;;5092614;28;20204;-78
2023/01/10 03:52:58;;;;;;;3.25;1.17;;;6.60;99.90;;;;;;5089550;28;20839;-79
2023/01/10 03:55:45;;;;;;;4.20;1.23;;;6.60;99.90;;;;;;5090616;28;20709;-79
2023/01/10 03:58:32;;;;;;;5.20;1.30;;;6.60;99.90;;;;;;5094597;28;20783;-78
2023/01/10 04:01:18;;;;;;;2.30;1.55;;;6.60;99.90;;;;;;5096111;28;20572;-79
2023/01/10 04:04:04;;;;;;;6.72;1.80;;;6.60;99.90;;;;;;5092848;28;20227;-79
2023/01/10 04:06:51;;;;;;;8.25;1.50;;;6.60;99.90;;;;;;5098064;28;20196;-78
2023/01/10 04:09:37;;;;;;;3.80;1.47;;;6.70;99.90;;;;;;5095844;28;20204;-78
2023/01/10 04:12:23;;;;;;;5.70;1.83;;;6.80;99.90;;;;;;5094660;28;20480;-78
2023/01/10 04:15:11;;;;;;;2.55;1.50;;;6.90;99.90;;;;;;5088744;28;20444;-79
2023/01/10 04:17:56;;;;;;;3.60;1.80;;;6.90;99.90;;;;;;5095491;28;20563;-78
2023/01/10 04:20:42;;;;;;;4.25;1.75;;;6.80;99.90;;;;;;5098450;28;20425;-78
2023/01/10 04:23:28;;;;;;;2.70;1.48;;;6.90;99.90;;;;;;5093076;28;20228;-76
2023/01/10 04:26:14;;;;;;;7.57;2.10;;;6.90;99.90;;;;;;5090805;28;20219;-79
2023/01/10 04:28:59;;;;;;;2.38;1.20;;;6.90;99.90;;;;;;5089074;28;20270;-78
2023/01/10 04:31:47;;;;;;;3.80;1.73;;;6.90;99.90;;;;;;5096508;28;20492;-79
2023/01/10 04:34:32;;;;;;;3.70;1.87;;;6.90;99.90;;;;;;5092892;28;20516;-79
2023/01/10 04:37:18;;;;;;;6.22;2.08;;;6.80;99.90;;;;;;5094770;28;20415;-79
2023/01/10 04:40:05;;;;;;;12.15;2.17;;;6.80;99.90;;;;;;5095117;28;20207;-78
2023/01/10 04:42:51;;;;;;;13.40;2.80;;;6.90;99.90;;;;;;5094559;28;20266;-79
2023/01/10 04:45:36;;;;;;;9.57;2.22;;;6.90;99.90;;;;;;5096143;28;20805;-79
2023/01/10 04:48:25;;;;;;;6.37;2.10;;;6.80;99.90;;;;;;5096828;28;20677;-78
2023/01/10 04:51:11;;;;;;;7.38;2.60;;;6.80;99.90;;;;;;5101704;28;20515;-78
2023/01/10 04:53:57;;;;;;;6.70;2.45;;;6.80;99.90;;;;;;5089446;28;20231;-77
2023/01/10 04:56:42;;;;;;;9.48;2.95;;;6.90;99.90;;;;;;5093995;28;20200;-79
2023/01/10 04:59:28;;;;;;;5.60;2.90;;;7.00;99.90;;;;;;5090823;28;20203;-77
2023/01/10 05:02:14;;;;;;;7.18;2.38;;;6.90;99.90;;;;;;5093684;28;20199;-76
2023/01/10 05:05:01;;;;;;;4.70;2.45;;;6.90;99.90;;;;;;5088292;28;20211;-78
2023/01/10 05:07:47;;;;;;;5.82;2.90;;;6.80;99.90;;;;;;5088964;28;20576;-78
2023/01/10 05:10:33;;;;;;;14.20;2.97;;;6.70;99.90;;;;;;5096125;28;20617;-77
2023/01/10 05:13:18;;;;;;;5.27;2.30;;;6.70;99.90;;;;;;5082183;28;21266;-79
2023/01/10 05:16:04;;;;;;;5.80;2.45;;;6.80;99.90;;;;;;5095568;28;20446;-78
2023/01/10 05:18:50;;;;;;;5.00;2.40;;;6.80;99.90;;;;;;5099008;28;20195;-78
2023/01/10 05:21:37;;;;;;;7.80;3.10;;;6.80;99.90;;;;;;5095935;28;20210;-77
2023/01/10 05:24:23;;;;;;;14.50;2.97;;;6.70;99.90;;;;;;5086562;28;20715;-78
2023/01/10 05:27:08;;;;;;;4.85;2.20;;;6.70;99.90;;;;;;5089821;28;20986;-77
2023/01/10 05:29:54;;;;;;;9.85;2.35;;;6.60;99.90;;;;;;5090090;28;20612;-76
2023/01/10 05:32:40;;;;;;;6.05;2.42;;;6.70;99.90;;;;;;5102674;22;20222;-74
2023/01/10 05:35:26;;;;;;;6.87;2.30;;;6.80;99.90;;;;;;5042293;28;20740;-74
2023/01/10 05:38:13;;;;;;;7.10;2.63;;;6.90;99.90;;;;;;5025151;28;20523;-74
2023/01/10 05:40:59;;;;;;;10.48;2.15;;;6.90;99.90;;;;;;5028511;28;20205;-74
2023/01/10 05:43:45;;;;;;;7.03;2.50;;;6.90;99.90;;;;;;5014131;28;20769;-74
2023/01/10 05:46:31;;;;;;;7.85;2.90;;;6.90;99.90;;;;;;5020494;28;20210;-74
2023/01/10 05:49:16;;;;;;;9.98;2.70;;;6.90;99.90;;;;;;5028676;28;20194;-74
2023/01/10 05:52:02;;;;;;;9.60;2.70;;;6.90;99.90;;;;;;5003077;28;21276;-74
2023/01/10 05:54:49;;;;;;;6.35;2.95;;;7.00;99.90;;;;;;5010899;28;20214;-74
2023/01/10 05:57:35;;;;;;;8.43;2.58;;;7.00;99.90;;;;;;5008134;28;20205;-74
2023/01/10 06:00:22;;;;;;;8.85;2.67;;;7.00;99.90;;;;;;5018221;28;20231;-74
2023/01/10 06:03:08;;;;;;;9.07;2.53;;;7.00;99.90;;;;;;5007969;28;20222;-74
2023/01/10 06:05:53;;;;;;;8.63;2.70;;;7.00;99.90;;;;;;5019807;28;20197;-75
2023/01/10 06:08:39;;;;;;;9.23;2.78;;;6.90;99.90;;;;;;5016288;28;20210;-74
2023/01/10 06:11:28;;;;;;;12.05;3.53;;;6.90;99.90;;;;;;5006094;28;20277;-74
2023/01/10 06:14:17;;;;;;;7.03;2.85;;;6.70;99.90;;;;;;5017967;28;20743;-74
2023/01/10 06:17:07;;;;;;;13.43;2.65;;;6.70;99.90;;;;;;5018730;28;20641;-75
2023/01/10 06:19:52;;;;;;;14.47;2.93;;;6.70;99.90;;;;;;5010312;28;20280;-74
2023/01/10 06:22:40;;;;;;;8.38;2.40;;;6.80;99.90;;;;;;5007295;28;20553;-74
2023/01/10 06:25:28;;;;;;;14.90;3.17;;;6.90;99.90;;;;;;5003070;28;20210;-74
2023/01/10 06:28:15;;;;;;;9.75;2.50;;;6.80;99.90;;;;;;5013105;28;20692;-74
2023/01/10 06:31:01;;;;;;;14.20;3.30;;;6.80;99.90;;;;;;5017302;28;20201;-74
2023/01/10 06:33:49;;;;;;;8.00;2.90;;;6.70;99.90;;;;;;5009308;28;20234;-74
2023/01/10 06:36:35;;;;;;;8.68;3.75;;;6.80;99.90;;;;;;5010275;28;20262;-74
2023/01/10 06:39:21;;;;;;;7.03;2.90;;;6.70;99.90;;;;;;5011232;28;20226;-74
2023/01/10 06:42:07;;;;;;;10.45;2.95;;;6.70;99.90;;;;;;5008485;28;20217;-74
2023/01/10 06:44:54;;;;;;;13.47;3.53;;;6.70;99.90;;;;;;5005939;28;20206;-74
2023/01/10 06:47:39;;;;;;;12.95;4.28;;;6.70;99.90;;;;;;5014693;28;20444;-74
2023/01/10 06:50:25;;;;;;;6.72;2.40;;;6.80;99.90;;;;;;5008207;28;20312;-74
2023/01/10 06:53:11;;;;;;;15.30;2.63;;;6.70;99.90;;;;;;5006305;28;20232;-74
2023/01/10 06:55:57;;;;;;;8.30;3.73;;;6.70;99.90;;;;;;5014639;28;20258;-74
2023/01/10 06:58:42;;;;;;;16.53;3.23;;;6.70;99.90;;;;;;5021735;28;20447;-73
2023/01/10 07:01:29;;;;;;;16.58;3.20;;;6.60;99.90;;;;;;5012873;28;20453;-74
2023/01/10 07:04:15;;;;;;;8.70;2.90;;;6.70;99.90;;;;;;5012458;28;20226;-74
2023/01/10 07:07:01;;;;;;;7.25;2.60;;;6.80;99.90;;;;;;5012808;28;20475;-74
2023/01/10 07:09:46;;;;;;;13.23;3.78;;;6.80;99.90;;;;;;5007081;28;20210;-74
2023/01/10 07:12:32;;;;;;;10.73;3.40;;;6.90;99.90;;;;;;5006704;28;20297;-74
2023/01/10 07:15:18;;;;;;;23.80;3.95;;;6.90;99.90;;;;;;5008872;28;20206;-74
2023/01/10 07:18:05;;;;;;;12.75;3.55;;;6.90;99.90;;;;;;5010881;28;20763;-74
2023/01/10 07:20:51;;;;;;;13.43;5.32;;;7.00;99.90;;;;;;5005073;28;20284;-74
2023/01/10 07:23:37;;;;;;;14.40;4.80;;;6.90;99.90;;;;;;5006582;28;20275;-74
2023/01/10 07:26:23;;;;;;;17.30;9.43;;;6.90;99.90;;;;;;5014052;28;20458;-74
2023/01/10 07:29:08;;;;;;;21.53;5.07;;;6.90;99.90;;;;;;5011117;28;20206;-74
2023/01/10 07:31:54;;;;;;;12.88;3.58;;;6.90;99.90;;;;;;5003838;28;21166;-74
2023/01/10 07:34:41;;;;;;;10.82;3.10;;;7.00;99.90;;;;;;5009057;28;20308;-74
2023/01/10 07:37:26;;;;;;;16.58;3.85;;;7.00;99.90;;;;;;5010209;28;20201;-74
2023/01/10 07:40:13;;;;;;;23.07;6.63;;;6.90;99.90;;;;;;5014149;28;20328;-74
2023/01/10 07:42:59;;;;;;;20.03;8.43;;;6.90;99.90;;;;;;5011422;28;20566;-73
2023/01/10 07:45:45;;;;;;;16.42;5.53;;;7.00;99.90;;;;;;5021779;28;20444;-74
2023/01/10 07:48:31;;;;;;;9.30;5.73;;;7.00;99.90;;;;;;5009724;28;20206;-74
2023/01/10 07:51:18;;;;;;;13.95;5.55;;;6.90;99.90;;;;;;5012149;28;20855;-74
2023/01/10 07:54:04;;;;;;;16.73;4.78;;;6.90;99.90;;;;;;5010583;28;20280;-74
2023/01/10 07:56:50;;;;;;;17.50;4.72;;;6.80;99.90;;;;;;5011362;28;20224;-73
2023/01/10 07:59:35;;;;;;;33.83;13.40;;;6.80;99.90;;;;;;5012209;28;20271;-74
2023/01/10 08:02:21;;;;;;;18.50;6.13;;;6.80;99.90;;;;;;5005744;28;20416;-73
2023/01/10 08:05:07;;;;;;;13.77;4.67;;;6.90;99.90;;;;;;5015473;28;20562;-74
2023/01/10 08:07:58;;;;;;;14.35;4.30;;;7.00;99.90;;;;;;5005658;28;20447;-74
2023/01/10 08:10:44;;;;;;;16.48;4.45;;;7.10;99.90;;;;;;5009039;28;20222;-73
2023/01/10 08:13:30;;;;;;;12.70;3.47;;;7.10;99.90;;;;;;5006466;28;20234;-73
2023/01/10 08:16:16;;;;;;;19.30;4.70;;;7.10;99.90;;;;;;5004613;28;20449;-73
2023/01/10 08:19:01;;;;;;;14.40;5.47;;;7.10;99.90;;;;;;5008028;28;20469;-73
2023/01/10 08:21:47;;;;;;;12.57;3.53;;;7.10;99.90;;;;;;5008449;28;20504;-73
2023/01/10 08:24:34;;;;;;;12.60;3.97;;;7.10;99.90;;;;;;5009026;28;20609;-74
2023/01/10 08:27:19;;;;;;;12.37;3.73;;;7.20;99.90;;;;;;5007853;28;20206;-73
2023/01/10 08:30:06;;;;;;;16.58;4.00;;;7.20;99.90;;;;;;5009200;28;20824;-74
2023/01/10 08:32:52;;;;;;;16.58;4.00;;;7.10;99.90;;;;;;5014529;28;20234;-74
2023/01/10 08:35:38;;;;;;;12.87;3.90;;;7.00;99.90;;;;;;5015748;28;20210;-73
2023/01/10 08:38:24;;;;;;;14.23;3.03;;;6.90;99.90;;;;;;5016867;28;20454;-73
2023/01/10 08:41:12;;;;;;;10.43;6.30;;;7.00;99.90;;;;;;5006956;28;20454;-73
2023/01/10 08:43:58;;;;;;;9.27;3.40;;;6.90;99.90;;;;;;5005631;28;20218;-73
2023/01/10 08:46:44;;;;;;;10.80;3.03;;;7.00;99.90;;;;;;5015905;28;20213;-73
2023/01/10 08:49:29;;;;;;;15.65;3.95;;;7.10;99.90;;;;;;5012852;28;20454;-74
2023/01/10 08:52:16;;;;;;;11.00;3.13;;;7.10;99.90;;;;;;5013078;28;20252;-74
2023/01/10 08:55:01;;;;;;;16.58;4.30;;;7.20;99.90;;;;;;5011543;28;20219;-74
2023/01/10 08:57:48;;;;;;;9.45;3.10;;;7.30;99.90;;;;;;5018835;28;20217;-74
2023/01/10 09:00:34;;;;;;;14.70;2.85;;;7.30;99.90;;;;;;5008776;28;20684;-74
2023/01/10 09:03:20;;;;;;;16.73;3.87;;;7.40;99.90;;;;;;5016156;28;20226;-74
2023/01/10 09:06:07;;;;;;;14.40;3.50;;;7.50;99.90;;;;;;5007942;28;22208;-74
2023/01/10 09:08:52;;;;;;;15.18;3.28;;;7.50;99.90;;;;;;5011786;28;20539;-74
2023/01/10 09:11:38;;;;;;;12.10;3.80;;;7.40;99.90;;;;;;5005055;28;20229;-74
2023/01/10 09:14:24;;;;;;;12.43;4.00;;;7.50;99.90;;;;;;5017379;28;20480;-73
2023/01/10 09:17:10;;;;;;;16.73;3.97;;;7.50;99.90;;;;;;5017895;28;20201;-74
2023/01/10 09:19:56;;;;;;;13.70;3.77;;;7.40;99.90;;;;;;5013645;28;20673;-74
2023/01/10 09:22:41;;;;;;;9.03;3.50;;;7.40;99.90;;;;;;5015815;28;20441;-73
2023/01/10 09:25:27;;;;;;;6.03;2.95;;;7.30;99.90;;;;;;5019117;28;20440;-73
2023/01/10 09:28:13;;;;;;;17.80;3.40;;;7.40;99.90;;;;;;5013198;28;20205;-74
2023/01/10 09:31:03;;;;;;;13.30;3.20;;;7.40;99.90;;;;;;5011598;28;20488;-74
2023/01/10 09:33:48;;;;;;;10.85;3.22;;;7.60;99.90;;;;;;5025339;28;20585;-74
2023/01/10 09:36:34;;;;;;;7.90;3.57;;;7.50;99.90;;;;;;5022466;28;20672;-74
2023/01/10 09:39:20;;;;;;;10.30;3.00;;;7.40;99.90;;;;;;5009430;28;20457;-74
2023/01/10 09:42:19;;;;;;;11.80;3.43;;;7.40;99.90;;;;;;5009415;28;20474;-73
2023/01/10 09:45:15;;;;;;;12.23;5.07;;;7.40;99.90;;;;;;5012760;28;20833;-73
2023/01/10 09:48:04;;;;;;;14.73;4.17;;;7.50;99.90;;;;;;5013020;28;20844;-73
2023/01/10 09:51:04;;;;;;;10.37;3.57;;;7.50;99.90;;;;;;5009976;28;20440;-74
2023/01/10 09:53:52;;;;;;;16.23;3.63;;;7.40;99.90;;;;;;5020604;28;20723;-74
2023/01/10 09:56:38;;;;;;;16.73;3.60;;;7.40;99.90;;;;;;5003578;28;20492;-74
2023/01/10 09:59:26;;;;;;;11.20;3.57;;;7.40;99.90;;;;;;5004039;28;20450;-74
2023/01/10 10:02:26;;;;;;;14.80;3.27;;;7.40;99.90;;;;;;5017338;28;20454;-74
2023/01/10 10:05:18;;;;;;;17.40;4.37;;;7.30;99.90;;;;;;5017185;28;20724;-74
2023/01/10 10:08:08;;;;;;;10.70;2.97;;;7.40;99.90;;;;;;5011716;28;20787;-74
2023/01/10 10:11:04;;;;;;;20.15;3.92;;;7.30;99.90;;;;;;5005933;28;20202;-72
2023/01/10 10:13:56;;;;;;;12.55;3.58;;;7.30;99.90;;;;;;5011374;28;20237;-75
2023/01/10 10:16:54;;;;;;;26.38;3.40;;;7.40;99.90;;;;;;5029613;28;20317;-73
2023/01/10 10:19:54;;;;;;;14.02;4.10;;;7.40;99.90;;;;;;5020617;28;20207;-74
2023/01/10 10:22:53;;;;;;;16.83;4.67;;;7.30;99.90;;;;;;5026254;28;20226;-74
2023/01/10 10:25:48;;;;;;;18.20;3.90;;;7.40;99.90;;;;;;5016010;28;20760;-73
2023/01/10 10:29:19;;;;;;;9.27;3.93;;;7.50;99.90;;;;;;5022703;28;20479;-74
2023/01/10 10:32:26;;;;;;;10.90;3.13;;;7.30;99.90;;;;;;5026517;28;20475;-74
2023/01/10 10:35:16;;;;;;;7.67;3.20;;;7.30;99.90;;;;;;5027424;28;20443;-73
2023/01/10 10:38:08;;;;;;;18.02;3.47;;;7.40;99.90;;;;;;5031794;28;20400;-72
2023/01/10 10:40:55;;;;;;;14.10;3.23;;;7.40;99.90;;;;;;5022454;28;20779;-72
2023/01/10 10:43:42;;;;;;;8.63;2.87;;;7.40;99.90;;;;;;5028012;28;20460;-72
2023/01/10 10:46:27;;;;;;;18.30;3.60;;;7.40;99.90;;;;;;5027700;28;20476;-73
2023/01/10 10:49:21;;;;;;;17.60;3.72;;;7.40;99.90;;;;;;5013843;28;20210;-73
2023/01/10 10:52:16;;;;;;;20.40;4.85;;;7.30;99.90;;;;;;5029467;28;20205;-72
2023/01/10 10:55:03;;;;;;;15.13;4.88;;;7.40;99.90;;;;;;5024590;28;20602;-72
2023/01/10 10:57:49;;;;;;;23.47;5.37;;;7.30;99.90;;;;;;5029891;28;20276;-72
2023/01/10 11:00:35;;;;;;;19.10;3.85;;;7.30;99.90;;;;;;5009840;28;20496;-72
2023/01/10 11:03:30;;;;;;;12.93;3.17;;;7.30;99.90;;;;;;5024221;28;20230;-72
2023/01/10 11:06:18;;;;;;;8.63;3.30;;;7.50;99.90;;;;;;5026036;28;20202;-72
2023/01/10 11:09:05;;;;;;;8.57;3.05;;;7.50;99.90;;;;;;5013031;28;20454;-72
2023/01/10 11:11:55;;;;;;;14.10;4.68;;;7.70;99.90;;;;;;5017486;28;20260;-72
2023/01/10 11:14:44;;;;;;;21.23;4.07;;;7.70;99.90;;;;;;5029755;28;20233;-72
2023/01/10 11:17:32;;;;;;;130.43;72.00;;;7.60;99.90;;;;;;5007447;28;20426;-73
2023/01/10 11:20:18;;;;;;;39.15;21.48;;;7.60;99.90;;;;;;5027319;28;20218;-72
2023/01/10 11:23:04;;;;;;;14.57;5.43;;;7.50;99.90;;;;;;5033432;28;20706;-72
2023/01/10 11:25:50;;;;;;;10.80;3.47;;;7.50;99.90;;;;;;5012193;28;20202;-72
2023/01/10 11:28:38;;;;;;;18.73;5.65;;;7.40;99.90;;;;;;5016378;28;20270;-74
2023/01/10 11:31:28;;;;;;;32.80;7.33;;;7.40;99.90;;;;;;5003028;28;20241;-73
2023/01/10 11:34:25;;;;;;;14.05;4.57;;;7.50;99.90;;;;;;5026025;28;20536;-73
2023/01/10 11:37:21;;;;;;;23.77;8.80;;;7.60;99.90;;;;;;5022228;28;20268;-73
2023/01/10 11:40:26;;;;;;;20.53;6.27;;;7.60;99.90;;;;;;5023144;28;20789;-73
2023/01/10 11:43:26;;;;;;;17.00;4.63;;;7.50;99.90;;;;;;5032703;28;20453;-73
2023/01/10 11:46:19;;;;;;;17.13;7.70;;;7.50;99.90;;;;;;5025196;28;21008;-73
2023/01/10 11:49:06;;;;;;;17.87;4.23;;;7.50;99.90;;;;;;5019079;28;20819;-73
2023/01/10 11:51:58;;;;;;;21.80;6.95;;;7.40;99.90;;;;;;5029517;28;20429;-73
2023/01/10 11:54:44;;;;;;;15.90;4.65;;;7.30;99.90;;;;;;5029052;28;20229;-73
2023/01/10 11:57:31;;;;;;;19.05;8.10;;;7.40;99.90;;;;;;5027743;28;20953;-73
2023/01/10 12:00:18;;;;;;;19.73;6.17;;;7.50;99.90;;;;;;5021738;28;20205;-73
2023/01/10 12:03:19;;;;;;;14.52;4.57;;;7.50;99.90;;;;;;5032091;28;20440;-73
2023/01/10 12:06:08;;;;;;;15.40;4.40;;;7.50;99.90;;;;;;5029082;28;20576;-73
2023/01/10 12:08:55;;;;;;;13.85;3.90;;;7.60;99.90;;;;;;5021812;28;20436;-73
2023/01/10 12:11:40;;;;;;;14.97;4.17;;;7.50;99.90;;;;;;5026421;28;20699;-73
2023/01/10 12:14:28;;;;;;;19.42;4.20;;;7.50;99.90;;;;;;5029708;28;21163;-73
2023/01/10 12:17:23;;;;;;;13.47;3.80;;;7.40;99.90;;;;;;5033915;28;20219;-73
2023/01/10 12:20:15;;;;;;;18.33;4.00;;;7.40;99.90;;;;;;5014276;28;20565;-73
2023/01/10 12:23:04;;;;;;;18.63;5.05;;;7.40;99.90;;;;;;5012906;28;20452;-73
2023/01/10 12:25:51;;;;;;;14.03;3.77;;;7.50;99.90;;;;;;5025609;28;20698;-73
2023/01/10 12:28:37;;;;;;;16.60;5.00;;;7.60;99.90;;;;;;5009780;28;20484;-73
2023/01/10 12:31:24;;;;;;;16.92;4.88;;;7.60;99.90;;;;;;5033513;28;20424;-73
2023/01/10 12:34:18;;;;;;;22.77;5.47;;;7.60;99.90;;;;;;5030689;28;20320;-73
2023/01/10 12:37:14;;;;;;;22.10;3.83;;;7.60;99.90;;;;;;5025874;28;20211;-72
2023/01/10 12:40:04;;;;;;;20.33;4.55;;;7.50;99.90;;;;;;5010831;28;20244;-71
2023/01/10 12:46:08;;;;;;;14.27;4.43;;;7.30;99.90;;;;;;5019716;28;20234;-71
2023/01/10 12:48:58;;;;;;;18.55;3.92;;;7.40;99.90;;;;;;5007280;28;20576;-73
2023/01/10 12:51:45;;;;;;;17.07;3.57;;;7.30;99.90;;;;;;4997550;28;20688;-73
2023/01/10 12:54:33;;;;;;;15.23;3.60;;;7.40;99.90;;;;;;5002131;28;21045;-73
2023/01/10 12:57:27;;;;;;;19.55;4.72;;;7.40;99.90;;;;;;5003380;28;20540;-73
2023/01/10 13:00:23;;;;;;;25.17;5.20;;;7.40;99.90;;;;;;4998958;28;21167;-74
2023/01/10 13:03:13;;;;;;;13.87;4.40;;;7.40;99.90;;;;;;5009421;28;20534;-73
2023/01/10 13:05:59;;;;;;;13.57;4.28;;;7.50;99.90;;;;;;5006167;28;20472;-73
2023/01/10 13:08:45;;;;;;;19.20;3.40;;;7.50;99.90;;;;;;5009070;28;20229;-73
2023/01/10 13:11:40;;;;;;;11.33;4.47;;;7.50;99.90;;;;;;5009737;28;20939;-73
2023/01/10 13:14:30;;;;;;;18.65;4.30;;;7.50;99.90;;;;;;5012634;28;21059;-73
2023/01/10 13:17:27;;;;;;;14.13;3.80;;;7.50;99.90;;;;;;5009570;28;20198;-73
2023/01/10 13:20:44;;;;;;;18.38;5.25;;;7.60;99.90;;;;;;5001506;28;20600;-74
2023/01/10 13:23:32;;;;;;;22.70;5.00;;;7.70;99.90;;;;;;4951174;28;20285;-73
2023/01/10 13:26:19;;;;;;;18.35;4.65;;;7.70;99.90;;;;;;4992982;28;20454;-73
2023/01/10 13:29:12;;;;;;;17.38;3.78;;;7.70;99.90;;;;;;5008311;28;20704;-73
2023/01/10 13:32:00;;;;;;;11.68;3.63;;;7.70;99.90;;;;;;5024690;28;20209;-73
2023/01/10 13:34:46;;;;;;;25.47;4.03;;;7.60;99.90;;;;;;5018299;28;20846;-73
2023/01/10 13:37:36;;;;;;;12.18;4.15;;;7.60;99.90;;;;;;5025127;28;20966;-74
2023/01/10 13:40:26;;;;;;;14.50;4.07;;;7.50;99.90;;;;;;5016533;28;20202;-73
2023/01/10 13:43:35;;;;;;;19.33;4.90;;;7.40;99.90;;;;;;5026540;28;20300;-73
2023/01/10 13:46:41;;;;;;;15.90;4.38;;;7.40;99.90;;;;;;5022204;28;20482;-73
2023/01/10 13:49:47;;;;;;;22.47;4.40;;;7.60;99.90;;;;;;5012384;28;20216;-73
2023/01/10 13:52:33;;;;;;;16.50;3.20;;;7.60;99.90;;;;;;5026278;28;20976;-73
2023/01/10 13:55:28;;;;;;;18.73;4.85;;;7.60;99.90;;;;;;5020192;28;20230;-73
2023/01/10 14:04:57;;;;;;;15.70;3.53;;;7.70;99.90;;;;;;5021379;28;20469;-73
2023/01/10 14:07:45;;;;;;;16.00;3.92;;;7.70;99.90;;;;;;5015535;28;20608;-73
2023/01/10 14:10:32;;;;;;;10.27;3.70;;;7.70;99.90;;;;;;5013359;28;20210;-73
2023/01/10 14:13:22;;;;;;;18.23;3.33;;;7.70;99.90;;;;;;5025592;28;20476;-73
2023/01/10 14:16:28;;;;;;;15.13;4.78;;;7.70;99.90;;;;;;5027534;28;20985;-73
2023/01/10 14:19:26;;;;;;;19.40;3.45;;;7.70;99.90;;;;;;5011039;28;20593;-73
2023/01/10 14:22:34;;;;;;;15.48;3.55;;;7.70;99.90;;;;;;5017752;28;20743;-73
2023/01/10 14:25:21;;;;;;;26.13;3.53;;;7.70;99.90;;;;;;5022993;28;20328;-73
2023/01/10 14:28:21;;;;;;;14.25;4.40;;;7.60;99.90;;;;;;5018886;28;20206;-73
2023/01/10 14:31:18;;;;;;;15.85;3.33;;;7.60;99.90;;;;;;5024241;28;20240;-73
2023/01/10 14:34:04;;;;;;;19.42;3.10;;;7.60;99.90;;;;;;5018466;28;20276;-73
2023/01/10 14:36:57;;;;;;;16.50;3.03;;;7.70;99.90;;;;;;5018558;28;20572;-73
2023/01/10 14:39:43;;;;;;;13.10;3.10;;;7.80;99.90;;;;;;5009342;28;20201;-73
2023/01/10 14:42:30;;;;;;;17.58;4.97;;;7.80;99.90;;;;;;5009353;28;20205;-73
2023/01/10 14:45:26;;;;;;;14.88;2.90;;;7.80;99.90;;;;;;5021771;28;20194;-72
2023/01/10 14:48:27;;;;;;;12.88;3.50;;;7.80;99.90;;;;;;5015885;28;20206;-73
2023/01/10 14:51:22;;;;;;;16.35;3.08;;;7.80;99.90;;;;;;5019694;28;20795;-74
2023/01/10 14:54:13;;;;;;;17.33;2.63;;;7.80;99.90;;;;;;5018958;28;20225;-73
2023/01/10 14:56:59;;;;;;;15.13;2.90;;;7.80;99.90;;;;;;5025427;28;20719;-73
2023/01/10 14:59:46;;;;;;;10.60;2.60;;;7.80;99.90;;;;;;5012293;28;20230;-73
2023/01/10 15:02:31;;;;;;;12.25;3.20;;;7.70;99.90;;;;;;5021822;28;20205;-73